Terminal Aerodrome Forecast
Issued by NWS Sterling, VA

Current Version | Previous Version | Graphics & Text | Print | Product List | Glossary On
Versions: 1 2 3 4 5 6 7 8 9 10 11 12 13 14 15 16 17 18 19 20 21 22 23 24 25 26 27 28 29 30
000
FTUS41 KLWX 231800 AAA
TAFDCA
TAF AMD
KDCA 231826Z 2318/2418 00000KT 1SM BR OVC004
      TEMPO 2318/2322 00000KT 1 1/2SM BR OVC002
     FM232300 00000KT 1SM -DZ BR OVC003
     FM240400 00000KT 5SM -RA BR OVC003
     FM241000 VRB03KT 3SM RA OVC003
     FM241600 15005KT 5SM -RA OVC008 WS020/19030KT=

USA.gov is the U.S. government's official web portal to all federal, state and local government web resources and services.